KDTN/DTN METAR and TAF weather

Enter ICAO airport designator
Station Type Date Time Source
KDTN METAR 2020/09/21 23:53 UTC NOAA

KDTN 212353Z 05006KT 5SM BR BKN007 OVC011 19/18 A3009 RMK AO2 RAB13E45 SLP187 P0001 60010 T01940183 10206 20194 52003


Station Type Date Time Source
KDTN Decoded METAR 2020/09/21 23:53 UTC NOAA

SHREVEPORT DOWNTOWN AIRPORT, LA, United States (KDTN) 32-32N 093-45W 53M
Sep 21, 2020 - 07:53 PM EDT / 2020.09.21 2353 UTC
Wind: from the NE (050 degrees) at 7 MPH (6 KT):0
Visibility: 5 mile(s):0
Sky conditions: overcast
Weather: mist
Precipitation last hour: 0.01 inches
Temperature: 66.9 F (19.4 C)
Dew Point: 64.9 F (18.3 C)
Relative Humidity: 93%
Pressure (altimeter): 30.09 in. Hg (1018 hPa)
Pressure tendency: 0.01 inches (0.3 hPa) higher than three hours ago
ob: KDTN 212353Z 05006KT 5SM BR BKN007 OVC011 19/18 A3009 RMK AO2 RAB13E45 SLP187 P0001 60010 T01940183 10206 20194 52003
cycle: 0

Station Type Date Time Source
KDTN TAF UTC NOAA

Error!

Example: see airport list